Time;durP1;ratioP1;P1;durP2;ratioP2;P2;SDS_P1;SDS_P2;PMS_P1;PMS_P2;Temp;Humidity;BMP_temperature;BMP_pressure;BME280_temperature;BME280_humidity;BME280_pressure;Samples;Min_cycle;Max_cycle;Signal;HPM_P1;HPM_P2
2023/01/14 00:00:48;;;;;;;9.27;1.38;;;;;;;;;;5039458;28;20048;-79
2023/01/14 00:03:14;;;;;;;11.77;1.95;;;;;;;;;;5056431;28;20040;-81
2023/01/14 00:05:41;;;;;;;6.20;0.80;;;;;;;;;;5058123;28;20044;-82
2023/01/14 00:08:07;;;;;;;7.95;1.30;;;;;;;;;;5041554;28;20043;-81
2023/01/14 00:10:33;;;;;;;6.18;1.52;;;;;;;;;;5055634;28;20145;-80
2023/01/14 00:13:00;;;;;;;9.13;1.75;;;;;;;;;;5055602;28;20098;-80
2023/01/14 00:15:26;;;;;;;4.78;0.90;;;;;;;;;;5057246;28;20044;-80
2023/01/14 00:17:52;;;;;;;6.43;0.98;;;;;;;;;;5063732;28;20083;-81
2023/01/14 00:20:18;;;;;;;6.68;1.13;;;;;;;;;;5043044;28;20572;-82
2023/01/14 00:22:44;;;;;;;8.65;1.35;;;;;;;;;;5057200;28;20072;-81
2023/01/14 00:25:10;;;;;;;11.35;1.45;;;;;;;;;;5045210;28;20051;-81
2023/01/14 00:27:36;;;;;;;11.07;1.75;;;;;;;;;;5043124;28;20036;-80
2023/01/14 00:30:02;;;;;;;7.93;1.20;;;;;;;;;;5041774;28;20132;-80
2023/01/14 00:32:28;;;;;;;11.48;1.40;;;;;;;;;;5039974;28;20043;-80
2023/01/14 00:34:55;;;;;;;9.77;1.52;;;;;;;;;;5075794;28;20526;-79
2023/01/14 00:37:21;;;;;;;14.60;2.58;;;;;;;;;;5044095;28;20168;-79
2023/01/14 00:39:47;;;;;;;20.38;2.30;;;;;;;;;;5039283;28;20051;-79
2023/01/14 00:42:13;;;;;;;17.98;2.70;;;;;;;;;;5056705;28;20097;-79
2023/01/14 00:44:39;;;;;;;16.25;3.00;;;;;;;;;;5035767;28;21926;-79
2023/01/14 00:47:05;;;;;;;18.40;3.13;;;;;;;;;;5037335;28;20044;-79
2023/01/14 00:49:31;;;;;;;15.30;2.83;;;;;;;;;;5057078;28;20077;-79
2023/01/14 00:52:00;;;;;;;19.10;2.67;;;;;;;;;;5062522;28;20044;-78
2023/01/14 00:54:27;;;;;;;20.10;3.53;;;;;;;;;;5041920;28;20048;-78
2023/01/14 00:56:53;;;;;;;20.52;3.78;;;;;;;;;;5075871;28;20043;-77
2023/01/14 00:59:20;;;;;;;23.83;3.10;;;;;;;;;;5074615;28;20043;-78
2023/01/14 01:01:47;;;;;;;17.38;3.42;;;;;;;;;;5082114;28;20055;-78
2023/01/14 01:04:13;;;;;;;28.77;4.20;;;;;;;;;;5087865;28;20060;-77
2023/01/14 01:06:39;;;;;;;38.40;3.40;;;;;;;;;;5066750;28;21704;-78
2023/01/14 01:09:05;;;;;;;29.38;4.70;;;;;;;;;;5042620;28;20076;-77
2023/01/14 01:11:37;;;;;;;37.08;3.42;;;;;;;;;;5056780;28;21049;-78
2023/01/14 01:14:03;;;;;;;26.92;2.97;;;;;;;;;;5057150;28;20044;-77
2023/01/14 01:16:29;;;;;;;16.88;3.03;;;;;;;;;;5055179;28;20040;-77
2023/01/14 01:18:56;;;;;;;23.75;4.10;;;;;;;;;;5042620;28;20159;-77
2023/01/14 01:21:23;;;;;;;34.42;3.85;;;;;;;;;;5054685;28;20575;-77
2023/01/14 01:23:49;;;;;;;33.17;5.07;;;;;;;;;;5052684;28;20631;-77
2023/01/14 01:26:16;;;;;;;28.25;4.68;;;;;;;;;;5054487;28;20095;-77
2023/01/14 01:28:43;;;;;;;39.58;3.42;;;;;;;;;;5043632;28;20077;-77
2023/01/14 01:31:13;;;;;;;22.00;3.45;;;;;;;;;;5054358;28;20761;-77
2023/01/14 01:33:40;;;;;;;24.00;4.22;;;;;;;;;;5054036;28;20048;-78
2023/01/14 01:36:09;;;;;;;24.73;4.45;;;;;;;;;;5055860;28;20059;-78
2023/01/14 01:38:35;;;;;;;23.55;4.47;;;;;;;;;;5041435;28;20047;-78
2023/01/14 01:41:01;;;;;;;39.40;4.00;;;;;;;;;;5056364;28;20036;-78
2023/01/14 01:43:29;;;;;;;31.40;4.10;;;;;;;;;;5052512;28;20056;-77
2023/01/14 01:45:56;;;;;;;31.77;4.20;;;;;;;;;;5053846;28;20084;-77
2023/01/14 01:48:38;;;;;;;41.50;5.93;;;;;;;;;;5056202;28;21607;-77
2023/01/14 01:51:06;;;;;;;26.45;4.32;;;;;;;;;;5069883;28;20110;-77
2023/01/14 01:53:35;;;;;;;28.00;3.97;;;;;;;;;;5056697;28;20036;-78
2023/01/14 01:56:01;;;;;;;24.45;3.38;;;;;;;;;;5058289;28;21269;-77
2023/01/14 01:58:28;;;;;;;28.30;4.40;;;;;;;;;;5057736;28;20117;-77
2023/01/14 02:00:55;;;;;;;25.30;3.90;;;;;;;;;;5057092;28;20040;-77
2023/01/14 02:03:24;;;;;;;27.45;4.43;;;;;;;;;;5061136;28;20037;-77
2023/01/14 02:05:50;;;;;;;25.20;4.00;;;;;;;;;;5039556;28;20043;-77
2023/01/14 02:08:16;;;;;;;33.60;4.53;;;;;;;;;;5059255;28;20040;-77
2023/01/14 02:10:52;;;;;;;19.77;3.35;;;;;;;;;;5056200;28;20045;-78
2023/01/14 02:13:36;;;;;;;29.55;4.57;;;;;;;;;;5058511;28;20119;-76
2023/01/14 02:16:21;;;;;;;26.75;3.83;;;;;;;;;;5055549;28;20039;-76
2023/01/14 02:18:52;;;;;;;30.08;3.47;;;;;;;;;;5055564;28;20052;-76
2023/01/14 02:21:23;;;;;;;31.55;3.45;;;;;;;;;;5041833;28;20045;-75
2023/01/14 02:24:07;;;;;;;39.15;4.50;;;;;;;;;;5056842;28;20059;-76
2023/01/14 02:26:49;;;;;;;25.17;5.47;;;;;;;;;;5057691;28;20072;-76
2023/01/14 02:29:41;;;;;;;25.25;3.47;;;;;;;;;;5072806;28;20139;-76
2023/01/14 02:32:17;;;;;;;25.98;3.60;;;;;;;;;;5062600;28;20055;-76
2023/01/14 02:34:55;;;;;;;28.50;4.20;;;;;;;;;;5056610;28;20040;-76
2023/01/14 02:37:21;;;;;;;31.15;3.58;;;;;;;;;;5056054;28;20055;-76
2023/01/14 02:40:00;;;;;;;22.15;3.97;;;;;;;;;;5059318;28;20562;-76
2023/01/14 02:45:29;;;;;;;30.75;4.45;;;;;;;;;;5074188;28;20047;-75
2023/01/14 02:47:56;;;;;;;25.23;3.90;;;;;;;;;;5087112;28;20342;-75
2023/01/14 02:50:23;;;;;;;24.73;3.65;;;;;;;;;;5058935;28;20170;-75
2023/01/14 02:52:49;;;;;;;28.20;3.55;;;;;;;;;;5050877;28;20047;-75
2023/01/14 02:55:35;;;;;;;24.20;3.83;;;;;;;;;;5054306;28;20044;-75
2023/01/14 02:58:20;;;;;;;39.40;4.63;;;;;;;;;;5043730;28;20052;-76
2023/01/14 03:00:52;;;;;;;27.75;3.55;;;;;;;;;;5054738;28;20055;-76
2023/01/14 03:03:25;;;;;;;33.10;4.78;;;;;;;;;;5057775;28;20250;-75
2023/01/14 03:06:20;;;;;;;31.77;4.90;;;;;;;;;;5054573;28;20709;-76
2023/01/14 03:08:52;;;;;;;23.92;3.10;;;;;;;;;;5054564;28;20050;-76
2023/01/14 03:11:19;;;;;;;30.77;3.38;;;;;;;;;;5053585;28;20056;-76
2023/01/14 03:13:45;;;;;;;34.35;3.70;;;;;;;;;;5043294;28;20044;-76
2023/01/14 03:16:28;;;;;;;28.55;3.85;;;;;;;;;;5053881;28;20051;-73
2023/01/14 03:19:10;;;;;;;25.50;4.97;;;;;;;;;;5071126;28;20098;-74
2023/01/14 03:21:37;;;;;;;26.45;3.45;;;;;;;;;;5042840;28;20141;-75
2023/01/14 03:24:11;;;;;;;22.40;3.58;;;;;;;;;;5058410;28;20055;-76
2023/01/14 03:26:38;;;;;;;21.07;3.50;;;;;;;;;;5053288;28;20622;-76
2023/01/14 03:29:08;;;;;;;26.40;3.15;;;;;;;;;;5051519;28;20782;-75
2023/01/14 03:31:35;;;;;;;30.88;4.00;;;;;;;;;;5038102;28;20753;-76
2023/01/14 03:34:05;;;;;;;26.25;3.58;;;;;;;;;;5050794;28;20476;-76
2023/01/14 03:36:34;;;;;;;19.92;3.85;;;;;;;;;;5033724;28;20099;-75
2023/01/14 03:39:02;;;;;;;35.10;5.00;;;;;;;;;;5053494;28;20040;-75
2023/01/14 03:44:17;;;;;;;30.67;4.18;;;;;;;;;;5051017;28;20040;-75
2023/01/14 03:46:43;;;;;;;28.25;4.03;;;;;;;;;;5052061;28;20047;-75
2023/01/14 03:49:09;;;;;;;25.60;3.35;;;;;;;;;;5049541;28;20037;-75
2023/01/14 03:51:42;;;;;;;23.52;3.05;;;;;;;;;;5052184;28;20040;-76
2023/01/14 03:54:11;;;;;;;37.22;3.80;;;;;;;;;;5052739;28;20489;-75
2023/01/14 03:57:00;;;;;;;24.30;3.88;;;;;;;;;;5050894;28;20062;-76
2023/01/14 03:59:45;;;;;;;35.92;3.60;;;;;;;;;;5046548;28;20580;-76
2023/01/14 04:02:13;;;;;;;18.60;3.72;;;;;;;;;;5068128;27;20692;-76
2023/01/14 04:04:41;;;;;;;29.55;3.47;;;;;;;;;;5039416;28;20146;-76
2023/01/14 04:07:07;;;;;;;38.17;4.97;;;;;;;;;;5050017;28;20154;-76
2023/01/14 04:09:33;;;;;;;22.33;3.15;;;;;;;;;;5052116;28;20044;-76
2023/01/14 04:12:00;;;;;;;30.25;4.00;;;;;;;;;;5048850;28;20040;-76
2023/01/14 04:17:10;;;;;;;25.00;3.05;;;;;;;;;;5048150;28;21301;-76
2023/01/14 04:19:37;;;;;;;25.65;3.90;;;;;;;;;;5053312;28;20048;-76
2023/01/14 04:22:03;;;;;;;32.40;5.70;;;;;;;;;;5049371;28;20063;-74
2023/01/14 04:24:29;;;;;;;26.23;3.85;;;;;;;;;;5051255;28;20112;-76
2023/01/14 04:26:55;;;;;;;28.02;3.95;;;;;;;;;;5053422;28;20174;-75
2023/01/14 04:29:21;;;;;;;33.08;3.42;;;;;;;;;;5049658;28;20049;-75
2023/01/14 04:31:47;;;;;;;15.02;2.53;;;;;;;;;;5050979;28;20039;-77
2023/01/14 04:34:13;;;;;;;27.40;4.95;;;;;;;;;;5051364;28;20040;-76
2023/01/14 04:36:39;;;;;;;20.95;3.45;;;;;;;;;;5075873;28;21247;-76
2023/01/14 04:39:05;;;;;;;23.48;3.30;;;;;;;;;;5065038;28;20075;-73
2023/01/14 04:44:16;;;;;;;27.15;3.85;;;;;;;;;;5050122;28;20048;-74
2023/01/14 04:46:42;;;;;;;21.30;3.00;;;;;;;;;;5050488;28;20551;-74
2023/01/14 04:49:08;;;;;;;28.65;4.10;;;;;;;;;;5033874;28;21696;-75
2023/01/14 04:51:34;;;;;;;26.33;5.07;;;;;;;;;;5048954;28;20048;-75
2023/01/14 04:54:00;;;;;;;23.63;3.53;;;;;;;;;;5035213;28;20291;-75
2023/01/14 04:56:26;;;;;;;21.65;3.03;;;;;;;;;;5049778;28;20078;-75
2023/01/14 04:58:53;;;;;;;22.75;4.00;;;;;;;;;;5036516;28;20084;-75
2023/01/14 05:01:19;;;;;;;30.83;3.38;;;;;;;;;;5054544;28;20519;-75
2023/01/14 05:03:45;;;;;;;30.40;3.55;;;;;;;;;;5055318;28;20093;-75
2023/01/14 05:06:11;;;;;;;23.42;3.47;;;;;;;;;;5037737;28;20048;-75
2023/01/14 05:08:37;;;;;;;23.38;2.90;;;;;;;;;;5055154;28;20093;-75
2023/01/14 05:11:03;;;;;;;21.35;3.55;;;;;;;;;;5049233;28;20484;-75
2023/01/14 05:13:29;;;;;;;21.55;3.38;;;;;;;;;;5056122;28;20046;-75
2023/01/14 05:15:59;;;;;;;31.65;3.38;;;;;;;;;;5039165;28;20150;-75
2023/01/14 05:18:25;;;;;;;24.98;2.95;;;;;;;;;;5053655;28;20053;-75
2023/01/14 05:20:51;;;;;;;19.08;2.53;;;;;;;;;;5054093;28;20075;-75
2023/01/14 05:23:18;;;;;;;21.58;4.07;;;;;;;;;;5039840;28;20044;-75
2023/01/14 05:25:45;;;;;;;22.75;3.17;;;;;;;;;;5053699;28;20052;-75
2023/01/14 05:28:12;;;;;;;25.30;3.38;;;;;;;;;;5059365;28;20134;-75
2023/01/14 05:30:38;;;;;;;20.50;2.80;;;;;;;;;;5046771;28;20036;-75
2023/01/14 05:33:05;;;;;;;17.55;2.28;;;;;;;;;;5062198;28;20060;-75
2023/01/14 05:35:31;;;;;;;17.40;2.47;;;;;;;;;;5060134;28;20162;-75
2023/01/14 05:37:57;;;;;;;25.30;3.00;;;;;;;;;;5060001;28;20055;-75
2023/01/14 05:40:23;;;;;;;19.60;2.50;;;;;;;;;;5044035;28;20044;-74
2023/01/14 05:45:49;;;;;;;29.27;3.58;;;;;;;;;;5058258;28;20048;-75
2023/01/14 05:48:22;;;;;;;17.23;2.72;;;;;;;;;;5061453;28;20123;-75
2023/01/14 05:50:53;;;;;;;15.38;2.90;;;;;;;;;;5057889;28;20171;-75
2023/01/14 05:53:19;;;;;;;28.00;3.25;;;;;;;;;;5071720;28;20037;-75
2023/01/14 05:55:46;;;;;;;26.83;3.13;;;;;;;;;;5046095;28;20102;-75
2023/01/14 05:58:12;;;;;;;17.73;3.28;;;;;;;;;;5053292;28;20044;-75
2023/01/14 06:06:23;;;;;;;19.58;3.30;;;;;;;;;;5061635;28;20056;-75
2023/01/14 06:08:51;;;;;;;24.00;2.95;;;;;;;;;;5059992;28;20688;-75
2023/01/14 06:11:18;;;;;;;24.90;3.70;;;;;;;;;;5061120;28;20048;-74
2023/01/14 06:13:45;;;;;;;20.10;3.03;;;;;;;;;;5083057;28;20060;-74
2023/01/14 06:16:11;;;;;;;22.50;3.45;;;;;;;;;;5076215;28;20332;-74
2023/01/14 06:18:42;;;;;;;16.40;3.80;;;;;;;;;;5068758;28;20055;-75
2023/01/14 06:21:09;;;;;;;17.70;2.85;;;;;;;;;;5060835;28;20040;-75
2023/01/14 06:23:35;;;;;;;26.35;3.20;;;;;;;;;;5045324;28;20036;-75
2023/01/14 06:26:01;;;;;;;24.05;4.00;;;;;;;;;;5041514;28;20729;-75
2023/01/14 06:28:30;;;;;;;26.63;4.05;;;;;;;;;;5061976;28;20041;-75
2023/01/14 06:30:56;;;;;;;24.10;3.60;;;;;;;;;;5059342;28;20048;-74
2023/01/14 06:33:23;;;;;;;37.72;5.22;;;;;;;;;;5045587;28;20580;-74
2023/01/14 06:35:49;;;;;;;29.00;4.95;;;;;;;;;;5056770;28;20044;-74
2023/01/14 06:38:15;;;;;;;22.23;4.13;;;;;;;;;;5041971;28;20056;-75
2023/01/14 06:40:42;;;;;;;31.40;4.57;;;;;;;;;;5056492;28;20036;-75
2023/01/14 06:43:08;;;;;;;30.13;5.28;;;;;;;;;;5045080;28;20050;-75
2023/01/14 06:45:35;;;;;;;17.92;3.10;;;;;;;;;;5057143;28;20051;-74
2023/01/14 06:48:01;;;;;;;29.20;5.32;;;;;;;;;;5055703;28;20047;-74
2023/01/14 06:50:27;;;;;;;30.88;5.15;;;;;;;;;;5059922;28;20292;-75
2023/01/14 06:52:54;;;;;;;22.63;4.53;;;;;;;;;;5049549;28;20045;-75
2023/01/14 06:55:20;;;;;;;19.55;4.88;;;;;;;;;;5062397;28;20147;-75
2023/01/14 06:57:46;;;;;;;22.67;4.38;;;;;;;;;;5063444;28;20058;-75
2023/01/14 07:00:13;;;;;;;30.48;5.05;;;;;;;;;;5060918;28;20044;-75
2023/01/14 07:02:39;;;;;;;30.17;5.32;;;;;;;;;;5050924;28;20175;-76
2023/01/14 07:05:06;;;;;;;33.38;6.53;;;;;;;;;;5077740;27;20052;-75
2023/01/14 07:07:32;;;;;;;26.35;5.47;;;;;;;;;;5063085;28;20135;-75
2023/01/14 07:09:58;;;;;;;25.40;5.63;;;;;;;;;;5043394;28;20044;-75
2023/01/14 07:12:24;;;;;;;32.00;6.20;;;;;;;;;;5042450;28;20044;-75
2023/01/14 07:14:50;;;;;;;26.13;5.50;;;;;;;;;;5059400;28;20052;-75
2023/01/14 07:17:16;;;;;;;32.38;6.47;;;;;;;;;;5059874;28;20044;-75
2023/01/14 07:19:42;;;;;;;42.40;7.40;;;;;;;;;;5045877;28;20527;-76
2023/01/14 07:22:08;;;;;;;30.98;7.38;;;;;;;;;;5056743;28;20631;-76
2023/01/14 07:24:37;;;;;;;37.60;9.15;;;;;;;;;;5062517;28;20045;-76
2023/01/14 07:27:04;;;;;;;24.38;6.70;;;;;;;;;;5058069;28;20044;-76
2023/01/14 07:29:30;;;;;;;22.83;6.40;;;;;;;;;;5040104;28;20097;-75
2023/01/14 07:31:56;;;;;;;38.08;8.40;;;;;;;;;;5059734;28;20160;-75
2023/01/14 07:34:22;;;;;;;36.08;7.35;;;;;;;;;;5058946;28;20070;-75
2023/01/14 07:36:48;;;;;;;33.97;7.53;;;;;;;;;;5059166;28;20044;-75
2023/01/14 07:39:14;;;;;;;45.67;9.65;;;;;;;;;;5065241;28;20070;-76
2023/01/14 07:41:40;;;;;;;24.67;5.90;;;;;;;;;;5058608;28;20044;-75
2023/01/14 07:44:06;;;;;;;37.90;8.25;;;;;;;;;;5044070;28;20052;-75
2023/01/14 07:46:33;;;;;;;33.35;7.13;;;;;;;;;;5061029;28;20665;-75
2023/01/14 07:48:59;;;;;;;42.78;8.90;;;;;;;;;;5063305;28;20071;-75
2023/01/14 07:51:25;;;;;;;32.63;7.85;;;;;;;;;;5087231;28;21370;-75
2023/01/14 07:53:51;;;;;;;37.28;8.07;;;;;;;;;;5070766;28;20062;-75
2023/01/14 07:56:18;;;;;;;34.78;6.32;;;;;;;;;;5063909;28;20109;-75
2023/01/14 07:58:44;;;;;;;33.50;6.93;;;;;;;;;;5064250;28;20059;-75
2023/01/14 08:01:13;;;;;;;31.92;6.43;;;;;;;;;;5063191;28;20051;-75
2023/01/14 08:03:39;;;;;;;35.47;8.23;;;;;;;;;;5079225;28;20040;-75
2023/01/14 08:06:06;;;;;;;50.70;8.73;;;;;;;;;;5068768;28;20058;-75
2023/01/14 08:08:34;;;;;;;39.80;6.32;;;;;;;;;;5042276;28;20800;-76
2023/01/14 08:11:00;;;;;;;36.30;6.30;;;;;;;;;;5060182;28;20044;-75
2023/01/14 08:13:27;;;;;;;34.33;6.32;;;;;;;;;;5058470;28;20496;-75
2023/01/14 08:15:57;;;;;;;54.40;7.93;;;;;;;;;;5059236;28;22180;-75
2023/01/14 08:18:24;;;;;;;38.65;6.47;;;;;;;;;;5059355;28;20051;-75
2023/01/14 08:21:06;;;;;;;36.22;6.28;;;;;;;;;;5051420;28;20064;-76
2023/01/14 08:23:33;;;;;;;42.70;7.18;;;;;;;;;;5038576;28;20527;-75
2023/01/14 08:26:03;;;;;;;40.03;7.60;;;;;;;;;;5054579;28;20039;-75
2023/01/14 08:28:30;;;;;;;38.22;7.18;;;;;;;;;;5054970;28;20032;-75
2023/01/14 08:31:06;;;;;;;32.97;6.75;;;;;;;;;;5056084;28;20047;-75
2023/01/14 08:33:33;;;;;;;33.33;6.43;;;;;;;;;;5040050;28;20042;-75
2023/01/14 08:36:05;;;;;;;26.23;6.00;;;;;;;;;;5047647;28;21295;-74
2023/01/14 08:38:32;;;;;;;37.53;7.10;;;;;;;;;;5057301;28;20051;-75
2023/01/14 08:40:59;;;;;;;36.35;6.55;;;;;;;;;;5059232;28;20101;-75
2023/01/14 08:43:25;;;;;;;42.67;6.38;;;;;;;;;;5054792;28;20170;-76
2023/01/14 08:45:51;;;;;;;33.20;6.47;;;;;;;;;;5056416;28;20044;-76
2023/01/14 08:48:17;;;;;;;29.17;5.88;;;;;;;;;;5057041;28;20070;-75
2023/01/14 08:50:43;;;;;;;32.10;6.90;;;;;;;;;;5054748;28;20047;-75
2023/01/14 08:53:09;;;;;;;34.13;6.70;;;;;;;;;;5053366;28;20634;-75
2023/01/14 08:55:35;;;;;;;43.20;6.70;;;;;;;;;;5056820;28;20691;-75
2023/01/14 08:58:05;;;;;;;31.55;5.72;;;;;;;;;;5040889;28;20126;-75
2023/01/14 09:00:31;;;;;;;33.05;7.78;;;;;;;;;;5047257;28;20495;-76
2023/01/14 09:02:57;;;;;;;29.25;5.68;;;;;;;;;;5042470;28;20052;-76
2023/01/14 09:05:23;;;;;;;35.28;6.40;;;;;;;;;;5059666;28;20600;-77
2023/01/14 09:18:48;;;;;;;;;;;;;;;;;;5049415;28;20087;-79
2023/01/14 09:21:14;;;;;;;28.77;5.93;;;;;;;;;;5061740;28;19919;-79
2023/01/14 09:23:40;;;;;;;42.20;6.15;;;;;;;;;;5051709;28;20074;-80
2023/01/14 09:26:06;;;;;;;37.58;6.03;;;;;;;;;;5048170;28;20490;-79
2023/01/14 09:28:32;;;;;;;40.90;7.72;;;;;;;;;;5074306;28;20039;-79
2023/01/14 09:30:58;;;;;;;31.85;5.78;;;;;;;;;;5073317;28;20070;-79
2023/01/14 09:33:25;;;;;;;36.90;7.30;;;;;;;;;;5063469;28;20052;-79
2023/01/14 09:35:51;;;;;;;41.40;7.03;;;;;;;;;;5060424;28;20033;-80
2023/01/14 09:38:17;;;;;;;32.40;5.82;;;;;;;;;;5075414;28;20496;-80
2023/01/14 09:40:43;;;;;;;38.05;5.53;;;;;;;;;;5061828;28;20032;-81
2023/01/14 09:43:15;;;;;;;37.33;6.07;;;;;;;;;;5060578;28;20041;-81
2023/01/14 09:45:42;;;;;;;41.58;7.15;;;;;;;;;;5047018;28;20682;-80
2023/01/14 09:48:20;;;;;;;31.15;6.25;;;;;;;;;;5047179;28;20056;-81
2023/01/14 09:50:59;;;;;;;36.78;6.88;;;;;;;;;;5065467;28;20043;-80
2023/01/14 09:53:37;;;;;;;30.27;5.93;;;;;;;;;;5043351;28;20044;-81
2023/01/14 09:56:25;;;;;;;34.30;7.47;;;;;;;;;;5061385;28;20048;-81
2023/01/14 09:58:55;;;;;;;34.90;6.30;;;;;;;;;;5059818;28;21040;-81
2023/01/14 10:01:40;;;;;;;38.22;6.57;;;;;;;;;;5044271;28;20070;-79
2023/01/14 10:04:09;;;;;;;30.65;5.60;;;;;;;;;;5062913;28;20052;-80
2023/01/14 10:06:36;;;;;;;29.58;8.02;;;;;;;;;;5064574;28;20503;-80
2023/01/14 10:09:07;;;;;;;37.30;6.88;;;;;;;;;;5060622;28;20606;-80
2023/01/14 10:11:37;;;;;;;30.35;7.00;;;;;;;;;;5057522;28;20613;-81
2023/01/14 10:14:13;;;;;;;35.53;5.60;;;;;;;;;;5040634;28;20408;-81
2023/01/14 10:16:41;;;;;;;29.60;5.50;;;;;;;;;;5056915;28;20055;-81
2023/01/14 10:19:13;;;;;;;29.75;6.05;;;;;;;;;;5035817;28;20142;-81
2023/01/14 10:21:39;;;;;;;28.05;5.32;;;;;;;;;;5053255;28;20751;-75
2023/01/14 10:24:05;;;;;;;30.95;6.10;;;;;;;;;;5048667;28;20484;-75
2023/01/14 10:26:32;;;;;;;36.50;7.03;;;;;;;;;;5053967;28;20045;-75
2023/01/14 10:29:01;;;;;;;37.17;5.93;;;;;;;;;;5069486;28;20587;-75
2023/01/14 10:31:31;;;;;;;30.85;6.88;;;;;;;;;;5052926;28;20044;-75
2023/01/14 10:33:58;;;;;;;31.40;7.28;;;;;;;;;;5054204;28;20064;-75
2023/01/14 10:36:30;;;;;;;34.38;7.78;;;;;;;;;;5052813;28;20041;-75
2023/01/14 10:38:56;;;;;;;28.73;8.05;;;;;;;;;;5051798;28;20044;-75
2023/01/14 10:44:13;;;;;;;31.77;7.22;;;;;;;;;;5049627;28;20044;-74
2023/01/14 10:46:41;;;;;;;32.47;7.57;;;;;;;;;;5032125;28;20043;-76
2023/01/14 10:49:20;;;;;;;19.90;6.20;;;;;;;;;;5050791;28;20565;-75
2023/01/14 10:51:52;;;;;;;19.70;6.82;;;;;;;;;;5048123;28;20044;-75
2023/01/14 10:54:22;;;;;;;30.52;7.03;;;;;;;;;;5049710;28;20136;-75
2023/01/14 10:56:53;;;;;;;35.50;8.40;;;;;;;;;;5047046;28;20052;-74
2023/01/14 10:59:39;;;;;;;24.35;6.95;;;;;;;;;;5051396;28;20396;-76
2023/01/14 11:02:06;;;;;;;23.30;5.55;;;;;;;;;;5038742;28;20040;-74
2023/01/14 11:04:35;;;;;;;23.63;6.65;;;;;;;;;;5051681;28;20056;-75
2023/01/14 11:07:07;;;;;;;21.38;5.78;;;;;;;;;;5054084;28;20060;-76
2023/01/14 11:09:33;;;;;;;12.77;4.88;;;;;;;;;;5064392;28;20234;-75
2023/01/14 11:12:00;;;;;;;20.10;6.25;;;;;;;;;;5073329;28;20066;-75
2023/01/14 11:14:27;;;;;;;17.27;5.05;;;;;;;;;;5043617;28;20129;-74
2023/01/14 11:16:54;;;;;;;22.20;5.13;;;;;;;;;;5056770;28;20052;-75
2023/01/14 11:19:22;;;;;;;21.38;6.57;;;;;;;;;;5052133;28;20832;-76
2023/01/14 11:21:52;;;;;;;14.15;5.75;;;;;;;;;;5054035;28;20048;-75
2023/01/14 11:24:37;;;;;;;13.57;5.70;;;;;;;;;;5053964;28;20044;-74
2023/01/14 11:27:24;;;;;;;23.17;7.35;;;;;;;;;;5054389;28;20039;-74
2023/01/14 11:30:02;;;;;;;15.00;5.60;;;;;;;;;;5059965;28;20041;-76
2023/01/14 11:32:34;;;;;;;17.92;7.47;;;;;;;;;;5057394;28;20044;-86
2023/01/14 11:35:01;;;;;;;14.05;7.72;;;;;;;;;;5068138;28;20889;-87
2023/01/14 11:37:53;;;;;;;18.38;7.30;;;;;;;;;;5058186;28;20048;-88
2023/01/14 11:43:28;;;;;;;;;;;;;;;;;;;;;
2023/01/14 11:46:04;;;;;;;20.25;8.48;;;;;;;;;;5070807;28;20048;-89
2023/01/14 11:48:30;;;;;;;20.27;7.35;;;;;;;;;;5055248;28;20036;-88
2023/01/14 11:51:01;;;;;;;18.85;7.10;;;;;;;;;;5053397;28;20043;-89
2023/01/14 11:53:41;;;;;;;18.65;7.28;;;;;;;;;;5055326;28;20059;-88
2023/01/14 11:56:11;;;;;;;13.55;6.82;;;;;;;;;;5054965;28;20056;-88
2023/01/14 11:58:37;;;;;;;16.58;7.15;;;;;;;;;;5057761;28;20043;-88
2023/01/14 12:01:13;;;;;;;13.48;6.32;;;;;;;;;;5055668;28;20151;-86
2023/01/14 12:03:58;;;;;;;14.07;6.38;;;;;;;;;;5072897;28;20097;-87
2023/01/14 12:06:28;;;;;;;12.43;5.43;;;;;;;;;;5073310;28;20052;-86
2023/01/14 12:08:56;;;;;;;13.63;6.75;;;;;;;;;;5060536;28;20051;-87
2023/01/14 12:11:28;;;;;;;13.70;6.32;;;;;;;;;;5077438;28;20036;-89
2023/01/14 12:16:49;;;;;;;13.48;7.00;;;;;;;;;;5081528;28;20071;-88
2023/01/14 12:19:18;;;;;;;13.40;6.57;;;;;;;;;;5082123;28;20053;-89
2023/01/14 12:21:50;;;;;;;12.95;6.25;;;;;;;;;;5076433;28;20062;-89
2023/01/14 12:24:23;;;;;;;13.88;6.28;;;;;;;;;;5096574;28;20041;-88
2023/01/14 12:26:50;;;;;;;13.60;5.93;;;;;;;;;;5078130;28;20033;-89
2023/01/14 12:29:22;;;;;;;10.18;5.10;;;;;;;;;;5074366;28;20047;-87
2023/01/14 12:32:01;;;;;;;10.57;5.38;;;;;;;;;;5091585;28;20036;-88
2023/01/14 12:34:27;;;;;;;11.43;5.45;;;;;;;;;;5074456;28;20105;-88
2023/01/14 12:37:02;;;;;;;11.43;5.70;;;;;;;;;;5072374;28;20178;-87
2023/01/14 12:47:49;;;;;;;9.48;4.80;;;;;;;;;;5092297;28;20043;-88
2023/01/14 12:50:18;;;;;;;10.50;4.57;;;;;;;;;;5090996;28;20039;-88
2023/01/14 12:52:48;;;;;;;9.55;4.35;;;;;;;;;;5072932;28;20057;-86
2023/01/14 12:55:21;;;;;;;7.93;4.80;;;;;;;;;;5088562;28;20050;-88
2023/01/14 12:57:51;;;;;;;8.10;4.57;;;;;;;;;;5072956;28;20042;-87
2023/01/14 13:00:27;;;;;;;12.25;4.63;;;;;;;;;;5084951;28;20088;-88
2023/01/14 13:02:54;;;;;;;9.13;5.15;;;;;;;;;;5062506;28;20111;-87
2023/01/14 13:05:41;;;;;;;9.32;4.70;;;;;;;;;;5071382;28;20168;-91
2023/01/14 13:08:20;;;;;;;7.90;4.32;;;;;;;;;;5071334;28;20109;-89
2023/01/14 13:10:57;;;;;;;7.38;4.15;;;;;;;;;;5056574;28;20036;-90
2023/01/14 13:13:24;;;;;;;7.28;3.80;;;;;;;;;;5056821;28;20032;-90
2023/01/14 13:15:51;;;;;;;7.85;3.63;;;;;;;;;;5058927;28;20040;-90
2023/01/14 13:18:35;;;;;;;7.47;3.80;;;;;;;;;;5060469;28;20044;-90
2023/01/14 13:21:01;;;;;;;;;;;;;;;;;;5062319;28;20117;-89
2023/01/14 13:23:39;;;;;;;6.07;3.05;;;;;;;;;;5064030;28;19943;-90
2023/01/14 13:26:17;;;;;;;7.60;3.33;;;;;;;;;;5062697;28;20511;-91
2023/01/14 13:29:03;;;;;;;6.15;4.75;;;;;;;;;;5062753;28;20505;-88
2023/01/14 13:31:36;;;;;;;7.57;5.22;;;;;;;;;;5075741;28;20044;-89
2023/01/14 13:34:21;;;;;;;4.18;2.67;;;;;;;;;;5060064;28;20095;-90
2023/01/14 13:36:48;;;;;;;4.63;2.97;;;;;;;;;;5063542;28;20585;-91
2023/01/14 13:39:21;;;;;;;2.88;1.60;;;;;;;;;;5084894;28;20083;-91
2023/01/14 13:41:48;;;;;;;2.97;1.73;;;;;;;;;;5065439;28;20541;-91
2023/01/14 13:44:24;;;;;;;2.83;1.90;;;;;;;;;;5066624;28;20461;-90
2023/01/14 13:46:56;;;;;;;6.82;2.97;;;;;;;;;;5062411;28;20160;-89
2023/01/14 13:49:25;;;;;;;5.82;2.25;;;;;;;;;;5090776;28;20037;-92
2023/01/14 13:51:54;;;;;;;2.97;2.53;;;;;;;;;;5060771;28;20063;-90
2023/01/14 13:54:24;;;;;;;4.88;2.95;;;;;;;;;;5067997;28;20124;-89
2023/01/14 13:56:52;;;;;;;3.67;2.58;;;;;;;;;;5086169;28;20070;-86
2023/01/14 13:59:28;;;;;;;2.95;1.60;;;;;;;;;;5090840;28;20052;-88
2023/01/14 14:01:56;;;;;;;3.80;2.42;;;;;;;;;;5086254;28;20077;-87
2023/01/14 14:04:40;;;;;;;5.22;2.38;;;;;;;;;;5059972;28;20465;-88
2023/01/14 14:07:07;;;;;;;4.18;2.03;;;;;;;;;;5057603;28;20476;-87
2023/01/14 14:09:33;;;;;;;2.47;2.15;;;;;;;;;;5057553;28;20083;-87
2023/01/14 14:15:10;;;;;;;4.50;2.20;;;;;;;;;;5077312;28;20457;-88
2023/01/14 14:17:38;;;;;;;5.18;1.80;;;;;;;;;;5066071;28;20040;-88
2023/01/14 14:20:07;;;;;;;1.58;1.35;;;;;;;;;;5089135;28;20123;-91
2023/01/14 14:22:42;;;;;;;4.40;1.83;;;;;;;;;;5087860;28;20058;-88
2023/01/14 14:25:10;;;;;;;;;;;;;;;;;;5071988;28;20074;-88
2023/01/14 14:27:41;;;;;;;1.63;1.40;;;;;;;;;;5075181;28;19924;-88
2023/01/14 14:30:10;;;;;;;1.90;1.30;;;;;;;;;;5090411;28;20085;-88
2023/01/14 14:32:38;;;;;;;3.22;1.40;;;;;;;;;;5079376;28;20040;-88
2023/01/14 14:35:13;;;;;;;6.65;3.95;;;;;;;;;;5084473;28;20099;-85
2023/01/14 14:37:39;;;;;;;1.73;1.40;;;;;;;;;;5073141;28;20040;-86
2023/01/14 14:40:06;;;;;;;1.77;1.60;;;;;;;;;;5064096;28;20047;-85
2023/01/14 14:42:40;;;;;;;4.78;2.30;;;;;;;;;;5073243;28;20097;-85
2023/01/14 14:45:24;;;;;;;2.83;2.05;;;;;;;;;;5077992;28;20095;-86
2023/01/14 14:47:50;;;;;;;1.27;1.17;;;;;;;;;;5063610;28;20044;-84
2023/01/14 14:50:22;;;;;;;4.15;1.45;;;;;;;;;;5075827;28;20050;-84
2023/01/14 14:52:48;;;;;;;1.30;1.17;;;;;;;;;;5058689;28;20036;-85
2023/01/14 14:55:16;;;;;;;2.00;1.67;;;;;;;;;;5065955;28;20113;-85
2023/01/14 14:57:42;;;;;;;0.93;0.90;;;;;;;;;;5082629;28;20048;-85
2023/01/14 15:00:16;;;;;;;1.15;0.93;;;;;;;;;;5081503;28;20288;-82
2023/01/14 15:02:53;;;;;;;2.97;1.60;;;;;;;;;;5061626;28;20070;-86
2023/01/14 15:05:30;;;;;;;1.75;1.25;;;;;;;;;;5074088;28;20044;-84
2023/01/14 15:07:58;;;;;;;1.30;1.20;;;;;;;;;;5060556;28;20036;-86
2023/01/14 15:10:25;;;;;;;3.20;1.70;;;;;;;;;;5071654;28;20071;-85
2023/01/14 15:12:52;;;;;;;1.77;1.67;;;;;;;;;;5057053;28;20764;-84
2023/01/14 15:15:23;;;;;;;1.88;1.25;;;;;;;;;;5058677;28;20048;-84
2023/01/14 15:17:50;;;;;;;4.13;1.80;;;;;;;;;;5053534;28;20043;-84
2023/01/14 15:20:17;;;;;;;3.05;1.67;;;;;;;;;;5057583;28;20048;-84
2023/01/14 15:22:45;;;;;;;2.20;1.35;;;;;;;;;;5060778;28;20064;-86
2023/01/14 15:25:15;;;;;;;4.15;1.38;;;;;;;;;;5069511;28;20710;-84
2023/01/14 15:27:42;;;;;;;1.27;1.17;;;;;;;;;;5072787;28;20138;-88
2023/01/14 15:30:27;;;;;;;1.73;1.45;;;;;;;;;;5072130;28;20719;-85
2023/01/14 15:32:56;;;;;;;1.80;1.70;;;;;;;;;;5075999;28;20044;-87
2023/01/14 15:35:30;;;;;;;3.35;2.42;;;;;;;;;;5081168;28;20044;-84
2023/01/14 15:38:00;;;;;;;5.60;3.65;;;;;;;;;;5074177;28;20456;-85